Stations météo

réclame
Mon MeteoGroup
Reggio Calabria, Italie (16422): Température de l'air & dewpoint: 18.01.2018 10:00:00 - 24.01.2018 10:00:00 (CET)Reggio Calabria, Italie (16422): Vitesse du vent: 18.01.2018 10:00:00 - 24.01.2018 10:00:00 (CET)Reggio Calabria, Italie (16422): Direction du vent: 18.01.2018 10:00:00 - 24.01.2018 10:00:00 (CET)Reggio Calabria, Italie (16422): visibility: 18.01.2018 10:00:00 - 24.01.2018 10:00:00 (CET)
Date & Time tt [°C] td [°C] ff [km/h] ff [knt] dd vv [km]
24.01.2018 10:00:00 13,0 4,0 16 9 N 10
24.01.2018 09:00:00 11,0 6,0 9 5 NNE 10
24.01.2018 08:00:00 7,0 3,0 13 7 NNE 10
24.01.2018 07:00:00 6,0 4,0 13 7 NE 10
24.01.2018 06:00:00 7,0 5,0 11 6 NE 10
24.01.2018 05:00:00 - - - - - -
24.01.2018 04:00:00 - - - - - -
24.01.2018 03:00:00 - - - - - -
24.01.2018 02:00:00 - - - - - -
24.01.2018 01:00:00 - - - - - -
24.01.2018 00:00:00 10,0 9,0 8 4 E 10
23.01.2018 23:00:00 11,0 9,0 15 8 SE 10
23.01.2018 22:00:00 11,0 9,0 15 8 SW 10
23.01.2018 21:00:00 11,0 9,0 11 6 SW 10
23.01.2018 20:00:00 12,0 8,0 16 9 SW 10
23.01.2018 19:00:00 12,0 9,0 11 6 SSW 10
23.01.2018 18:00:00 13,0 10,0 16 9 WSW 10
23.01.2018 17:00:00 13,0 11,0 8 4 SSW 10
23.01.2018 16:00:00 13,0 12,0 5 3 S 10
23.01.2018 15:00:00 13,0 12,0 9 5 SSW 6
23.01.2018 14:00:00 14,0 12,0 4 2 - 7
23.01.2018 13:00:00 15,0 13,0 8 4 WSW 8
23.01.2018 12:00:00 15,0 12,0 9 5 NE 10
23.01.2018 11:00:00 15,0 12,0 0 0 N 10
23.01.2018 10:00:00 14,0 11,0 8 4 NNW 10
23.01.2018 09:00:00 15,0 10,0 9 5 N 10
23.01.2018 08:00:00 14,0 10,0 5 3 ENE 10
23.01.2018 07:00:00 13,0 10,0 5 3 E 10
23.01.2018 06:00:00 13,0 10,0 4 2 - 10
23.01.2018 05:00:00 - - - - - -
23.01.2018 04:00:00 - - - - - -
23.01.2018 03:00:00 - - - - - -
23.01.2018 02:00:00 - - - - - -
23.01.2018 01:00:00 - - - - - -
23.01.2018 00:00:00 14,0 8,0 13 7 N 10
22.01.2018 23:00:00 14,0 8,0 13 7 NNE 10
22.01.2018 22:00:00 14,0 7,0 13 7 NE 10
22.01.2018 21:00:00 14,0 7,0 13 7 NE 10
22.01.2018 20:00:00 12,0 7,0 13 7 NE 10
22.01.2018 19:00:00 13,0 7,0 18 10 N 10
22.01.2018 18:00:00 13,0 7,0 16 9 N 10
22.01.2018 17:00:00 14,0 6,0 18 10 NNE 10
22.01.2018 16:00:00 15,0 6,0 21 11 N 10
22.01.2018 15:00:00 15,0 5,0 22 12 N 10
22.01.2018 14:00:00 15,0 4,0 21 11 N 10
22.01.2018 13:00:00 16,0 4,0 24 13 N 10
22.01.2018 12:00:00 15,0 5,0 26 14 N 10
22.01.2018 11:00:00 15,0 5,0 24 13 N 10
22.01.2018 10:00:00 15,0 6,0 21 11 N 10
22.01.2018 09:00:00 14,0 7,0 21 11 NNE 10
22.01.2018 08:00:00 13,0 6,0 22 12 N 10
22.01.2018 07:00:00 13,0 5,0 24 13 N 10
22.01.2018 06:00:00 13,0 7,0 31 17 N 10
22.01.2018 05:00:00 13,0 9,0 31 17 N 10
22.01.2018 04:00:00 - - - - - -
22.01.2018 03:00:00 - - - - - -
22.01.2018 02:00:00 - - - - - -
22.01.2018 01:00:00 - - - - - -
22.01.2018 00:00:00 15,0 11,0 34 18 NNW 10
21.01.2018 23:00:00 15,0 10,0 35 19 NNW 10
21.01.2018 22:00:00 15,0 10,0 37 20 NNW 10
21.01.2018 21:00:00 15,0 11,0 35 19 NNW 10
21.01.2018 20:00:00 15,0 11,0 37 20 NNW 10
21.01.2018 19:00:00 15,0 11,0 37 20 NNW 10
21.01.2018 18:00:00 16,0 11,0 31 17 NW 10
21.01.2018 17:00:00 16,0 11,0 24 13 NW 10
21.01.2018 16:00:00 16,0 11,0 28 15 NW 10
21.01.2018 15:00:00 14,0 11,0 5 3 - 10
21.01.2018 14:00:00 15,0 10,0 9 5 NNE 10
21.01.2018 13:00:00 13,0 10,0 11 6 E 10
21.01.2018 12:00:00 13,0 9,0 4 2 - 10
21.01.2018 11:00:00 14,0 8,0 13 7 SW 10
21.01.2018 10:00:00 14,0 6,0 5 3 SSE 10
21.01.2018 09:00:00 14,0 5,0 8 4 NNE 10
21.01.2018 08:00:00 13,0 6,0 15 8 NNE 10
21.01.2018 07:00:00 13,0 6,0 13 7 NNE 10
21.01.2018 06:00:00 11,0 7,0 9 5 NNE 10
21.01.2018 05:00:00 - - - - - -
21.01.2018 04:00:00 - - - - - -
21.01.2018 03:00:00 - - - - - -
21.01.2018 02:00:00 - - - - - -
21.01.2018 01:00:00 - - - - - -
21.01.2018 00:00:00 12,0 8,0 9 5 NNE 10
20.01.2018 23:00:00 13,0 7,0 13 7 N 10
20.01.2018 22:00:00 13,0 8,0 15 8 NNE 10
20.01.2018 21:00:00 12,0 7,0 13 7 NNE 10
20.01.2018 20:00:00 13,0 7,0 15 8 NNE 10
20.01.2018 19:00:00 13,0 7,0 16 9 NNE 10
20.01.2018 18:00:00 14,0 8,0 18 10 N 10
20.01.2018 17:00:00 14,0 7,0 21 11 NNE 10
20.01.2018 16:00:00 15,0 8,0 24 13 N 10
20.01.2018 15:00:00 15,0 8,0 21 11 N 10
20.01.2018 14:00:00 16,0 8,0 21 11 N 10
20.01.2018 13:00:00 15,0 9,0 24 13 N 10
20.01.2018 12:00:00 16,0 9,0 22 12 N 10
20.01.2018 11:00:00 15,0 9,0 21 11 N 10
20.01.2018 10:00:00 15,0 8,0 13 7 NNE 10
20.01.2018 09:00:00 13,0 8,0 13 7 NNE 10
20.01.2018 08:00:00 11,0 7,0 13 7 NNE 10
20.01.2018 07:00:00 10,0 7,0 11 6 N 10
20.01.2018 06:00:00 10,0 6,0 8 4 N 10
20.01.2018 05:00:00 - - - - - -
20.01.2018 04:00:00 - - - - - -
20.01.2018 03:00:00 - - - - - -
20.01.2018 02:00:00 - - - - - -
20.01.2018 01:00:00 - - - - - -
20.01.2018 00:00:00 9,0 3,0 5 3 E 10
19.01.2018 23:00:00 10,0 5,0 8 4 N 10
19.01.2018 22:00:00 9,0 4,0 8 4 NE 10
19.01.2018 21:00:00 11,0 6,0 8 4 N 10
19.01.2018 20:00:00 12,0 7,0 16 9 N 10
19.01.2018 19:00:00 13,0 6,0 22 12 N 10
19.01.2018 18:00:00 13,0 6,0 18 10 N 10
19.01.2018 17:00:00 13,0 7,0 24 13 N 10
19.01.2018 16:00:00 14,0 6,0 22 12 N 10
19.01.2018 15:00:00 15,0 7,0 22 12 N 10
19.01.2018 14:00:00 15,0 8,0 24 13 N 10
19.01.2018 13:00:00 15,0 8,0 28 15 N 10
19.01.2018 12:00:00 15,0 8,0 26 14 N 10
19.01.2018 11:00:00 15,0 9,0 26 14 N 10
19.01.2018 10:00:00 14,0 6,0 18 10 N 10
19.01.2018 09:00:00 12,0 5,0 5 3 NNE 10
19.01.2018 08:00:00 8,0 2,0 9 5 NE 10
19.01.2018 07:00:00 10,0 6,0 13 7 N 10
19.01.2018 06:00:00 9,0 4,0 4 2 - 10
19.01.2018 05:00:00 - - - - - -
19.01.2018 04:00:00 - - - - - -
19.01.2018 03:00:00 - - - - - -
19.01.2018 02:00:00 - - - - - -
19.01.2018 01:00:00 - - - - - -
19.01.2018 00:00:00 9,0 1,0 15 8 ENE 10
18.01.2018 23:00:00 8,0 1,0 13 7 NE 10
18.01.2018 22:00:00 9,0 1,0 13 7 NE 10
18.01.2018 21:00:00 9,0 2,0 11 6 NE 10
18.01.2018 20:00:00 10,0 2,0 11 6 NE 10
18.01.2018 19:00:00 10,0 1,0 9 5 NE 10
18.01.2018 18:00:00 11,0 1,0 13 7 NE 10
18.01.2018 17:00:00 13,0 1,0 13 7 N 10
18.01.2018 16:00:00 14,0 0,0 21 11 N 10
18.01.2018 15:00:00 15,0 -1,0 22 12 N 10
18.01.2018 14:00:00 15,0 0,0 22 12 N 10
18.01.2018 13:00:00 15,0 -1,0 24 13 N 10
18.01.2018 12:00:00 15,0 1,0 24 13 N 10
18.01.2018 11:00:00 14,0 -1,0 24 13 N 10
18.01.2018 10:00:00 1,0 -12,0 24 13 N 10

tt = Température de l'air
td = dewpoint
ff = Vitesse du vent
dd = Direction du vent
vv = visibility

stations d'obs. à proximité